sensor_id;sensor_type;location;lat;lon;timestamp;pressure;altitude;pressure_sealevel;temperature;humidity
51237;BME280;37312;47.550;18.818;2022-08-20T00:01:05;98558.53;;;19.37;100.00
51237;BME280;37312;47.550;18.818;2022-08-20T00:03:38;98555.50;;;19.38;100.00
51237;BME280;37312;47.550;18.818;2022-08-20T00:06:07;98559.94;;;19.34;100.00
51237;BME280;37312;47.550;18.818;2022-08-20T00:08:35;98566.53;;;19.33;100.00
51237;BME280;37312;47.550;18.818;2022-08-20T00:11:01;98560.25;;;19.33;100.00
51237;BME280;37312;47.550;18.818;2022-08-20T00:13:32;98564.91;;;19.32;100.00
51237;BME280;37312;47.550;18.818;2022-08-20T00:15:58;98567.94;;;19.31;100.00
51237;BME280;37312;47.550;18.818;2022-08-20T00:18:24;98568.84;;;19.26;100.00
51237;BME280;37312;47.550;18.818;2022-08-20T00:20:52;98568.25;;;19.29;100.00
51237;BME280;37312;47.550;18.818;2022-08-20T00:23:19;98571.38;;;19.36;100.00
51237;BME280;37312;47.550;18.818;2022-08-20T00:25:46;98579.47;;;19.42;100.00
51237;BME280;37312;47.550;18.818;2022-08-20T00:28:12;98572.41;;;19.41;100.00
51237;BME280;37312;47.550;18.818;2022-08-20T00:30:41;98573.41;;;19.45;100.00
51237;BME280;37312;47.550;18.818;2022-08-20T00:33:10;98587.25;;;19.48;100.00
51237;BME280;37312;47.550;18.818;2022-08-20T00:35:40;98579.66;;;19.45;100.00
51237;BME280;37312;47.550;18.818;2022-08-20T00:38:06;98578.03;;;19.44;100.00
51237;BME280;37312;47.550;18.818;2022-08-20T00:40:36;98578.34;;;19.43;100.00
51237;BME280;37312;47.550;18.818;2022-08-20T00:43:05;98574.63;;;19.38;100.00
51237;BME280;37312;47.550;18.818;2022-08-20T00:45:32;98581.38;;;19.41;100.00
51237;BME280;37312;47.550;18.818;2022-08-20T00:47:59;98589.69;;;19.50;100.00
51237;BME280;37312;47.550;18.818;2022-08-20T00:50:30;98596.44;;;19.52;100.00
51237;BME280;37312;47.550;18.818;2022-08-20T00:52:59;98592.81;;;19.43;100.00
51237;BME280;37312;47.550;18.818;2022-08-20T00:55:28;98598.47;;;19.33;100.00
51237;BME280;37312;47.550;18.818;2022-08-20T00:57:57;98596.25;;;19.35;100.00
51237;BME280;37312;47.550;18.818;2022-08-20T01:00:33;98606.06;;;19.36;100.00
51237;BME280;37312;47.550;18.818;2022-08-20T01:02:59;98614.25;;;19.22;100.00
51237;BME280;37312;47.550;18.818;2022-08-20T01:05:26;98609.78;;;19.12;100.00
51237;BME280;37312;47.550;18.818;2022-08-20T01:07:52;98610.12;;;19.11;100.00
51237;BME280;37312;47.550;18.818;2022-08-20T01:10:23;98609.59;;;19.09;100.00
51237;BME280;37312;47.550;18.818;2022-08-20T01:12:52;98609.28;;;19.10;100.00
51237;BME280;37312;47.550;18.818;2022-08-20T01:15:21;98610.28;;;19.01;100.00
51237;BME280;37312;47.550;18.818;2022-08-20T01:17:51;98610.00;;;19.02;100.00
51237;BME280;37312;47.550;18.818;2022-08-20T01:20:24;98616.16;;;19.08;100.00
51237;BME280;37312;47.550;18.818;2022-08-20T01:26:16;98609.59;;;19.09;100.00
51237;BME280;37312;47.550;18.818;2022-08-20T01:28:48;98615.56;;;19.11;100.00
51237;BME280;37312;47.550;18.818;2022-08-20T01:31:27;98610.41;;;19.09;100.00
51237;BME280;37312;47.550;18.818;2022-08-20T01:33:56;98589.47;;;19.05;100.00
51237;BME280;37312;47.550;18.818;2022-08-20T01:36:26;98600.69;;;19.03;100.00
51237;BME280;37312;47.550;18.818;2022-08-20T01:38:55;98591.41;;;19.04;100.00
51237;BME280;37312;47.550;18.818;2022-08-20T01:41:40;98582.38;;;19.04;100.00
51237;BME280;37312;47.550;18.818;2022-08-20T01:44:11;98567.63;;;19.05;100.00
51237;BME280;37312;47.550;18.818;2022-08-20T01:46:40;98561.88;;;19.06;100.00
51237;BME280;37312;47.550;18.818;2022-08-20T01:49:10;98542.78;;;19.06;100.00
51237;BME280;37312;47.550;18.818;2022-08-20T01:51:37;98547.75;;;19.04;100.00
51237;BME280;37312;47.550;18.818;2022-08-20T01:54:04;98551.78;;;19.07;100.00
51237;BME280;37312;47.550;18.818;2022-08-20T01:56:33;98558.66;;;19.04;100.00
51237;BME280;37312;47.550;18.818;2022-08-20T01:59:02;98566.34;;;19.02;100.00
51237;BME280;37312;47.550;18.818;2022-08-20T02:01:34;98573.22;;;19.00;100.00
51237;BME280;37312;47.550;18.818;2022-08-20T02:04:03;98561.97;;;19.01;100.00
51237;BME280;37312;47.550;18.818;2022-08-20T02:06:35;98560.06;;;19.02;100.00
51237;BME280;37312;47.550;18.818;2022-08-20T02:09:03;98555.09;;;19.04;100.00
51237;BME280;37312;47.550;18.818;2022-08-20T02:11:30;98545.19;;;19.08;100.00
51237;BME280;37312;47.550;18.818;2022-08-20T02:13:57;98540.06;;;19.06;100.00
51237;BME280;37312;47.550;18.818;2022-08-20T02:16:33;98528.63;;;19.04;100.00
51237;BME280;37312;47.550;18.818;2022-08-20T02:19:06;98523.25;;;18.99;100.00
51237;BME280;37312;47.550;18.818;2022-08-20T02:21:40;98513.16;;;19.00;100.00
51237;BME280;37312;47.550;18.818;2022-08-20T02:24:08;98525.91;;;19.04;100.00
51237;BME280;37312;47.550;18.818;2022-08-20T02:26:34;98523.75;;;19.01;100.00
51237;BME280;37312;47.550;18.818;2022-08-20T02:29:05;98529.53;;;19.00;100.00
51237;BME280;37312;47.550;18.818;2022-08-20T02:31:32;98525.47;;;18.97;100.00
51237;BME280;37312;47.550;18.818;2022-08-20T02:33:59;98526.59;;;18.96;100.00
51237;BME280;37312;47.550;18.818;2022-08-20T02:36:25;98538.31;;;18.96;100.00
51237;BME280;37312;47.550;18.818;2022-08-20T02:38:52;98534.16;;;18.99;100.00
51237;BME280;37312;47.550;18.818;2022-08-20T02:41:18;98546.72;;;19.00;100.00
51237;BME280;37312;47.550;18.818;2022-08-20T02:43:47;98556.22;;;19.03;100.00
51237;BME280;37312;47.550;18.818;2022-08-20T02:46:14;98566.84;;;19.04;100.00
51237;BME280;37312;47.550;18.818;2022-08-20T02:48:41;98575.63;;;19.01;100.00
51237;BME280;37312;47.550;18.818;2022-08-20T02:51:07;98566.63;;;19.01;100.00
51237;BME280;37312;47.550;18.818;2022-08-20T02:53:36;98559.25;;;19.01;100.00
51237;BME280;37312;47.550;18.818;2022-08-20T02:56:06;98556.22;;;19.03;100.00
51237;BME280;37312;47.550;18.818;2022-08-20T02:58:32;98563.09;;;19.00;100.00
51237;BME280;37312;47.550;18.818;2022-08-20T03:01:01;98548.13;;;18.98;100.00
51237;BME280;37312;47.550;18.818;2022-08-20T03:03:27;98543.47;;;18.98;100.00
51237;BME280;37312;47.550;18.818;2022-08-20T03:05:55;98543.25;;;18.94;100.00
51237;BME280;37312;47.550;18.818;2022-08-20T03:08:22;98568.56;;;19.00;100.00
51237;BME280;37312;47.550;18.818;2022-08-20T03:10:49;98604.53;;;19.02;100.00
51237;BME280;37312;47.550;18.818;2022-08-20T03:13:16;98614.22;;;18.94;100.00
51237;BME280;37312;47.550;18.818;2022-08-20T03:15:48;98639.28;;;18.96;100.00
51237;BME280;37312;47.550;18.818;2022-08-20T03:18:17;98641.50;;;18.94;100.00
51237;BME280;37312;47.550;18.818;2022-08-20T03:20:43;98644.31;;;18.89;100.00
51237;BME280;37312;47.550;18.818;2022-08-20T03:23:10;98650.59;;;18.90;100.00
51237;BME280;37312;47.550;18.818;2022-08-20T03:25:36;98647.56;;;18.91;100.00
51237;BME280;37312;47.550;18.818;2022-08-20T03:28:03;98650.28;;;18.91;100.00
51237;BME280;37312;47.550;18.818;2022-08-20T03:30:30;98653.53;;;18.93;100.00
51237;BME280;37312;47.550;18.818;2022-08-20T03:32:56;98680.31;;;18.91;100.00
51237;BME280;37312;47.550;18.818;2022-08-20T03:35:25;98684.34;;;18.94;100.00
51237;BME280;37312;47.550;18.818;2022-08-20T03:37:51;98686.16;;;18.85;100.00
51237;BME280;37312;47.550;18.818;2022-08-20T03:40:30;98693.62;;;18.79;100.00
51237;BME280;37312;47.550;18.818;2022-08-20T03:42:57;98683.06;;;18.72;100.00
51237;BME280;37312;47.550;18.818;2022-08-20T03:45:24;98674.03;;;18.72;100.00
51237;BME280;37312;47.550;18.818;2022-08-20T03:47:53;98680.00;;;18.74;100.00
51237;BME280;37312;47.550;18.818;2022-08-20T03:50:23;98680.53;;;18.76;100.00
51237;BME280;37312;47.550;18.818;2022-08-20T03:52:51;98675.87;;;18.76;100.00
51237;BME280;37312;47.550;18.818;2022-08-20T03:55:17;98669.38;;;18.78;100.00
51237;BME280;37312;47.550;18.818;2022-08-20T03:57:49;98656.53;;;18.78;100.00
51237;BME280;37312;47.550;18.818;2022-08-20T04:00:25;98646.34;;;18.84;100.00
51237;BME280;37312;47.550;18.818;2022-08-20T04:02:52;98637.03;;;18.85;100.00
51237;BME280;37312;47.550;18.818;2022-08-20T04:05:18;98641.19;;;18.82;100.00
51237;BME280;37312;47.550;18.818;2022-08-20T04:07:44;98631.34;;;18.81;100.00
51237;BME280;37312;47.550;18.818;2022-08-20T04:10:11;98635.91;;;18.86;100.00
51237;BME280;37312;47.550;18.818;2022-08-20T04:12:38;98646.44;;;18.92;100.00
51237;BME280;37312;47.550;18.818;2022-08-20T04:15:08;98641.31;;;18.91;100.00
51237;BME280;37312;47.550;18.818;2022-08-20T04:17:36;98637.56;;;18.87;100.00
51237;BME280;37312;47.550;18.818;2022-08-20T04:20:05;98634.22;;;18.90;100.00
51237;BME280;37312;47.550;18.818;2022-08-20T04:22:31;98632.00;;;18.92;100.00
51237;BME280;37312;47.550;18.818;2022-08-20T04:24:57;98622.72;;;18.93;100.00
51237;BME280;37312;47.550;18.818;2022-08-20T04:27:23;98616.66;;;18.96;100.00
51237;BME280;37312;47.550;18.818;2022-08-20T04:29:49;98612.41;;;19.04;100.00
51237;BME280;37312;47.550;18.818;2022-08-20T04:32:15;98610.41;;;19.09;100.00
51237;BME280;37312;47.550;18.818;2022-08-20T04:34:41;98609.59;;;19.09;100.00
51237;BME280;37312;47.550;18.818;2022-08-20T04:37:08;98612.00;;;19.10;100.00
51237;BME280;37312;47.550;18.818;2022-08-20T04:39:36;98609.00;;;19.12;100.00
51237;BME280;37312;47.550;18.818;2022-08-20T04:42:02;98624.34;;;19.22;100.00
51237;BME280;37312;47.550;18.818;2022-08-20T04:46:54;98619.22;;;19.34;100.00
51237;BME280;37312;47.550;18.818;2022-08-20T04:49:20;98622.84;;;19.43;100.00
51237;BME280;37312;47.550;18.818;2022-08-20T04:51:51;98625.78;;;19.47;100.00
51237;BME280;37312;47.550;18.818;2022-08-20T04:54:18;98642.66;;;19.49;100.00
51237;BME280;37312;47.550;18.818;2022-08-20T04:56:43;98633.50;;;19.45;100.00
51237;BME280;37312;47.550;18.818;2022-08-20T04:59:10;98624.69;;;19.48;100.00
51237;BME280;37312;47.550;18.818;2022-08-20T05:01:36;98623.16;;;19.55;100.00
51237;BME280;37312;47.550;18.818;2022-08-20T05:04:02;98621.25;;;19.70;100.00
51237;BME280;37312;47.550;18.818;2022-08-20T05:06:30;98620.22;;;19.79;100.00
51237;BME280;37312;47.550;18.818;2022-08-20T05:08:58;98631.03;;;19.85;100.00
51237;BME280;37312;47.550;18.818;2022-08-20T05:11:25;98641.25;;;19.93;100.00
51237;BME280;37312;47.550;18.818;2022-08-20T05:13:51;98653.25;;;20.06;100.00
51237;BME280;37312;47.550;18.818;2022-08-20T05:16:18;98651.91;;;20.17;100.00
51237;BME280;37312;47.550;18.818;2022-08-20T05:18:44;98646.94;;;20.19;100.00
51237;BME280;37312;47.550;18.818;2022-08-20T05:21:11;98635.03;;;20.15;100.00
51237;BME280;37312;47.550;18.818;2022-08-20T05:23:38;98625.69;;;20.16;100.00
51237;BME280;37312;47.550;18.818;2022-08-20T05:26:09;98624.47;;;20.22;100.00
51237;BME280;37312;47.550;18.818;2022-08-20T05:28:36;98631.63;;;20.32;100.00
51237;BME280;37312;47.550;18.818;2022-08-20T05:31:04;98640.19;;;20.39;100.00
51237;BME280;37312;47.550;18.818;2022-08-20T05:33:35;98642.13;;;20.38;100.00
51237;BME280;37312;47.550;18.818;2022-08-20T05:36:03;98632.56;;;20.50;100.00
51237;BME280;37312;47.550;18.818;2022-08-20T05:38:32;98641.44;;;20.55;100.00
51237;BME280;37312;47.550;18.818;2022-08-20T05:40:59;98644.28;;;20.64;100.00
51237;BME280;37312;47.550;18.818;2022-08-20T05:43:26;98649.25;;;20.62;100.00
51237;BME280;37312;47.550;18.818;2022-08-20T05:45:52;98647.25;;;20.54;100.00
51237;BME280;37312;47.550;18.818;2022-08-20T05:48:20;98651.00;;;20.44;100.00
51237;BME280;37312;47.550;18.818;2022-08-20T05:50:48;98640.91;;;20.45;100.00
51237;BME280;37312;47.550;18.818;2022-08-20T05:53:16;98651.59;;;20.55;100.00
51237;BME280;37312;47.550;18.818;2022-08-20T05:55:42;98645.84;;;20.56;100.00
51237;BME280;37312;47.550;18.818;2022-08-20T05:58:17;98644.41;;;20.59;100.00
51237;BME280;37312;47.550;18.818;2022-08-20T06:00:44;98636.06;;;20.64;100.00
51237;BME280;37312;47.550;18.818;2022-08-20T06:03:10;98622.37;;;20.64;100.00
51237;BME280;37312;47.550;18.818;2022-08-20T06:05:55;98624.03;;;20.65;100.00
51237;BME280;37312;47.550;18.818;2022-08-20T06:08:21;98618.03;;;20.86;100.00
51237;BME280;37312;47.550;18.818;2022-08-20T06:10:47;98624.16;;;20.91;100.00
51237;BME280;37312;47.550;18.818;2022-08-20T06:13:13;98618.88;;;20.95;100.00
51237;BME280;37312;47.550;18.818;2022-08-20T06:15:39;98619.88;;;20.99;100.00
51237;BME280;37312;47.550;18.818;2022-08-20T06:18:06;98619.22;;;21.02;100.00
51237;BME280;37312;47.550;18.818;2022-08-20T06:20:34;98622.81;;;21.11;100.00
51237;BME280;37312;47.550;18.818;2022-08-20T06:23:00;98628.94;;;21.08;100.00
51237;BME280;37312;47.550;18.818;2022-08-20T06:25:26;98639.09;;;21.16;100.00
51237;BME280;37312;47.550;18.818;2022-08-20T06:27:52;98641.38;;;21.14;100.00
51237;BME280;37312;47.550;18.818;2022-08-20T06:30:18;98652.94;;;21.11;100.00
51237;BME280;37312;47.550;18.818;2022-08-20T06:32:44;98662.28;;;21.10;100.00
51237;BME280;37312;47.550;18.818;2022-08-20T06:35:11;98663.75;;;21.16;100.00
51237;BME280;37312;47.550;18.818;2022-08-20T06:37:38;98679.22;;;21.12;100.00
51237;BME280;37312;47.550;18.818;2022-08-20T06:40:16;98696.09;;;21.06;100.00
51237;BME280;37312;47.550;18.818;2022-08-20T06:42:44;98723.78;;;21.04;100.00
51237;BME280;37312;47.550;18.818;2022-08-20T06:45:12;98734.84;;;20.99;100.00
51237;BME280;37312;47.550;18.818;2022-08-20T06:47:40;98729.69;;;20.97;100.00
51237;BME280;37312;47.550;18.818;2022-08-20T06:50:13;98735.78;;;20.94;100.00
51237;BME280;37312;47.550;18.818;2022-08-20T06:52:40;98718.44;;;20.99;100.00
51237;BME280;37312;47.550;18.818;2022-08-20T06:55:07;98723.81;;;21.13;100.00
51237;BME280;37312;47.550;18.818;2022-08-20T06:57:35;98709.50;;;21.16;100.00
51237;BME280;37312;47.550;18.818;2022-08-20T07:00:07;98710.25;;;21.30;100.00
51237;BME280;37312;47.550;18.818;2022-08-20T07:02:33;98711.72;;;21.36;100.00
51237;BME280;37312;47.550;18.818;2022-08-20T07:05:01;98712.03;;;21.35;100.00
51237;BME280;37312;47.550;18.818;2022-08-20T07:07:27;98715.97;;;21.42;100.00
51237;BME280;37312;47.550;18.818;2022-08-20T07:10:07;98727.91;;;21.47;100.00
51237;BME280;37312;47.550;18.818;2022-08-20T07:12:33;98736.34;;;21.36;100.00
51237;BME280;37312;47.550;18.818;2022-08-20T07:15:07;98743.56;;;21.32;100.00
51237;BME280;37312;47.550;18.818;2022-08-20T07:17:34;98740.81;;;21.23;100.00
51237;BME280;37312;47.550;18.818;2022-08-20T07:20:06;98742.38;;;21.16;100.00
51237;BME280;37312;47.550;18.818;2022-08-20T07:22:33;98743.78;;;21.13;100.00
51237;BME280;37312;47.550;18.818;2022-08-20T07:25:07;98750.41;;;21.12;100.00
51237;BME280;37312;47.550;18.818;2022-08-20T07:27:34;98749.22;;;21.04;100.00
51237;BME280;37312;47.550;18.818;2022-08-20T07:30:00;98751.28;;;20.99;100.00
51237;BME280;37312;47.550;18.818;2022-08-20T07:32:45;98762.22;;;20.99;100.00
51237;BME280;37312;47.550;18.818;2022-08-20T07:35:14;98761.28;;;21.03;100.00
51237;BME280;37312;47.550;18.818;2022-08-20T07:37:42;98769.00;;;21.01;100.00
51237;BME280;37312;47.550;18.818;2022-08-20T07:40:15;98780.09;;;20.96;100.00
51237;BME280;37312;47.550;18.818;2022-08-20T07:42:41;98787.81;;;20.94;100.00
51237;BME280;37312;47.550;18.818;2022-08-20T07:45:09;98800.66;;;20.94;100.00
51237;BME280;37312;47.550;18.818;2022-08-20T07:47:37;98806.13;;;20.94;100.00
51237;BME280;37312;47.550;18.818;2022-08-20T07:50:05;98801.91;;;20.88;100.00
51237;BME280;37312;47.550;18.818;2022-08-20T07:52:31;98809.31;;;20.87;100.00
51237;BME280;37312;47.550;18.818;2022-08-20T07:55:08;98808.62;;;20.81;100.00
51237;BME280;37312;47.550;18.818;2022-08-20T07:57:36;98812.97;;;20.82;100.00
51237;BME280;37312;47.550;18.818;2022-08-20T08:00:06;98813.59;;;20.79;100.00
51237;BME280;37312;47.550;18.818;2022-08-20T08:02:34;98820.63;;;20.72;100.00
51237;BME280;37312;47.550;18.818;2022-08-20T08:05:01;98817.78;;;20.63;100.00
51237;BME280;37312;47.550;18.818;2022-08-20T08:07:27;98821.44;;;20.58;100.00
51237;BME280;37312;47.550;18.818;2022-08-20T08:09:54;98824.97;;;20.45;100.00
51237;BME280;37312;47.550;18.818;2022-08-20T08:12:22;98830.56;;;20.40;100.00
51237;BME280;37312;47.550;18.818;2022-08-20T08:14:49;98835.22;;;20.26;100.00
51237;BME280;37312;47.550;18.818;2022-08-20T08:17:16;98841.00;;;20.24;100.00
51237;BME280;37312;47.550;18.818;2022-08-20T08:19:46;98832.88;;;20.19;100.00
51237;BME280;37312;47.550;18.818;2022-08-20T08:22:16;98834.69;;;20.10;100.00
51237;BME280;37312;47.550;18.818;2022-08-20T08:24:43;98845.03;;;19.99;100.00
51237;BME280;37312;47.550;18.818;2022-08-20T08:27:12;98839.75;;;20.03;100.00
51237;BME280;37312;47.550;18.818;2022-08-20T08:29:39;98836.09;;;19.93;100.00
51237;BME280;37312;47.550;18.818;2022-08-20T08:32:05;98833.09;;;19.95;100.00
51237;BME280;37312;47.550;18.818;2022-08-20T08:34:33;98822.22;;;19.90;100.00
51237;BME280;37312;47.550;18.818;2022-08-20T08:37:00;98806.16;;;19.88;100.00
51237;BME280;37312;47.550;18.818;2022-08-20T08:39:28;98803.31;;;19.79;100.00
51237;BME280;37312;47.550;18.818;2022-08-20T08:41:55;98802.50;;;19.79;100.00
51237;BME280;37312;47.550;18.818;2022-08-20T08:44:24;98815.66;;;19.77;100.00
51237;BME280;37312;47.550;18.818;2022-08-20T08:46:54;98824.44;;;19.74;100.00
51237;BME280;37312;47.550;18.818;2022-08-20T08:49:28;98831.03;;;19.73;100.00
51237;BME280;37312;47.550;18.818;2022-08-20T08:51:59;98840.06;;;19.54;100.00
51237;BME280;37312;47.550;18.818;2022-08-20T08:54:29;98829.09;;;19.41;100.00
51237;BME280;37312;47.550;18.818;2022-08-20T08:56:57;98817.28;;;19.45;100.00
51237;BME280;37312;47.550;18.818;2022-08-20T08:59:29;98824.16;;;19.43;100.00
51237;BME280;37312;47.550;18.818;2022-08-20T09:01:58;98813.91;;;19.34;100.00
51237;BME280;37312;47.550;18.818;2022-08-20T09:04:38;98785.97;;;19.37;100.00
51237;BME280;37312;47.550;18.818;2022-08-20T09:07:07;98773.22;;;19.33;100.00
51237;BME280;37312;47.550;18.818;2022-08-20T09:09:38;98766.25;;;19.27;100.00
51237;BME280;37312;47.550;18.818;2022-08-20T09:12:16;98752.59;;;19.27;100.00
51237;BME280;37312;47.550;18.818;2022-08-20T09:14:46;98752.75;;;19.16;100.00
51237;BME280;37312;47.550;18.818;2022-08-20T09:17:18;98760.31;;;19.06;100.00
51237;BME280;37312;47.550;18.818;2022-08-20T09:19:44;98778.03;;;18.89;100.00
51237;BME280;37312;47.550;18.818;2022-08-20T09:22:13;98775.38;;;18.84;100.00
51237;BME280;37312;47.550;18.818;2022-08-20T09:24:40;98780.94;;;18.79;100.00
51237;BME280;37312;47.550;18.818;2022-08-20T09:27:06;98776.78;;;18.82;100.00
51237;BME280;37312;47.550;18.818;2022-08-20T09:29:32;98772.94;;;18.83;100.00
51237;BME280;37312;47.550;18.818;2022-08-20T09:32:12;98781.75;;;18.74;100.00
51237;BME280;37312;47.550;18.818;2022-08-20T09:34:45;98783.25;;;18.67;100.00
51237;BME280;37312;47.550;18.818;2022-08-20T09:37:13;98784.66;;;18.64;100.00
51237;BME280;37312;47.550;18.818;2022-08-20T09:39:40;98802.94;;;18.64;100.00
51237;BME280;37312;47.550;18.818;2022-08-20T09:42:12;98795.63;;;18.59;100.00
51237;BME280;37312;47.550;18.818;2022-08-20T09:44:39;98798.56;;;18.44;100.00
51237;BME280;37312;47.550;18.818;2022-08-20T09:47:05;98800.03;;;18.36;100.00
51237;BME280;37312;47.550;18.818;2022-08-20T09:49:31;98791.19;;;18.44;100.00
51237;BME280;37312;47.550;18.818;2022-08-20T09:51:58;98800.69;;;18.47;100.00
51237;BME280;37312;47.550;18.818;2022-08-20T09:54:26;98791.19;;;18.44;100.00
51237;BME280;37312;47.550;18.818;2022-08-20T09:56:59;98806.28;;;18.37;100.00
51237;BME280;37312;47.550;18.818;2022-08-20T09:59:28;98812.87;;;18.11;100.00
51237;BME280;37312;47.550;18.818;2022-08-20T10:01:54;98813.75;;;18.07;100.00
51237;BME280;37312;47.550;18.818;2022-08-20T10:04:20;98810.53;;;18.00;100.00
51237;BME280;37312;47.550;18.818;2022-08-20T10:06:46;98800.41;;;18.05;100.00
51237;BME280;37312;47.550;18.818;2022-08-20T10:09:12;98778.88;;;18.04;100.00
51237;BME280;37312;47.550;18.818;2022-08-20T10:11:38;98755.75;;;18.01;100.00
51237;BME280;37312;47.550;18.818;2022-08-20T10:14:04;98748.63;;;18.05;100.00
51237;BME280;37312;47.550;18.818;2022-08-20T10:16:30;98727.63;;;18.06;100.00
51237;BME280;37312;47.550;18.818;2022-08-20T10:18:56;98718.50;;;18.16;100.00
51237;BME280;37312;47.550;18.818;2022-08-20T10:21:22;98697.69;;;18.25;100.00
51237;BME280;37312;47.550;18.818;2022-08-20T10:23:48;98686.34;;;18.37;100.00
51237;BME280;37312;47.550;18.818;2022-08-20T10:26:15;98671.22;;;18.44;100.00
51237;BME280;37312;47.550;18.818;2022-08-20T10:28:42;98665.25;;;18.61;100.00
51237;BME280;37312;47.550;18.818;2022-08-20T10:31:10;98663.28;;;18.81;100.00
51237;BME280;37312;47.550;18.818;2022-08-20T10:33:36;98665.00;;;19.09;100.00
51237;BME280;37312;47.550;18.818;2022-08-20T10:36:15;98668.38;;;19.48;100.00
51237;BME280;37312;47.550;18.818;2022-08-20T10:38:42;98662.19;;;19.97;100.00
51237;BME280;37312;47.550;18.818;2022-08-20T10:41:09;98678.03;;;20.23;100.00
51237;BME280;37312;47.550;18.818;2022-08-20T10:43:35;98695.78;;;20.48;100.00
51237;BME280;37312;47.550;18.818;2022-08-20T10:46:01;98705.31;;;20.87;100.00
51237;BME280;37312;47.550;18.818;2022-08-20T10:48:28;98721.16;;;21.21;100.00
51237;BME280;37312;47.550;18.818;2022-08-20T10:50:54;98732.81;;;21.58;100.00
51237;BME280;37312;47.550;18.818;2022-08-20T10:53:20;98737.66;;;22.10;100.00
51237;BME280;37312;47.550;18.818;2022-08-20T10:55:46;98752.94;;;21.94;100.00
51237;BME280;37312;47.550;18.818;2022-08-20T10:58:12;98760.16;;;21.81;100.00
51237;BME280;37312;47.550;18.818;2022-08-20T11:00:39;98755.06;;;22.05;100.00
51237;BME280;37312;47.550;18.818;2022-08-20T11:03:05;98754.03;;;21.84;100.00
51237;BME280;37312;47.550;18.818;2022-08-20T11:05:31;98757.56;;;21.76;100.00
51237;BME280;37312;47.550;18.818;2022-08-20T11:08:01;98762.78;;;21.63;100.00
51237;BME280;37312;47.550;18.818;2022-08-20T11:10:29;98764.03;;;21.49;100.00
51237;BME280;37312;47.550;18.818;2022-08-20T11:12:55;98776.44;;;21.55;100.00
51237;BME280;37312;47.550;18.818;2022-08-20T11:15:21;98781.63;;;21.56;100.00
51237;BME280;37312;47.550;18.818;2022-08-20T11:17:47;98779.09;;;21.60;100.00
51237;BME280;37312;47.550;18.818;2022-08-20T11:20:16;98792.28;;;21.98;100.00
51237;BME280;37312;47.550;18.818;2022-08-20T11:22:42;98795.66;;;22.26;100.00
51237;BME280;37312;47.550;18.818;2022-08-20T11:25:09;98792.03;;;22.74;100.00
51237;BME280;37312;47.550;18.818;2022-08-20T11:27:38;98788.34;;;23.22;100.00
51237;BME280;37312;47.550;18.818;2022-08-20T11:30:07;98780.47;;;23.68;100.00
51237;BME280;37312;47.550;18.818;2022-08-20T11:32:33;98778.56;;;24.37;100.00
51237;BME280;37312;47.550;18.818;2022-08-20T11:34:59;98772.97;;;24.75;100.00
51237;BME280;37312;47.550;18.818;2022-08-20T11:37:25;98768.69;;;24.65;100.00
51237;BME280;37312;47.550;18.818;2022-08-20T11:39:51;98773.66;;;24.72;100.00
51237;BME280;37312;47.550;18.818;2022-08-20T11:42:17;98760.69;;;24.72;100.00
51237;BME280;37312;47.550;18.818;2022-08-20T11:44:44;98767.84;;;24.65;100.00
51237;BME280;37312;47.550;18.818;2022-08-20T11:47:20;98766.72;;;24.66;100.00
51237;BME280;37312;47.550;18.818;2022-08-20T11:49:46;98766.41;;;24.67;100.00
51237;BME280;37312;47.550;18.818;2022-08-20T11:52:12;98764.66;;;24.63;100.00
51237;BME280;37312;47.550;18.818;2022-08-20T11:54:38;98756.78;;;24.23;100.00
51237;BME280;37312;47.550;18.818;2022-08-20T11:57:05;98748.16;;;24.03;100.00
51237;BME280;37312;47.550;18.818;2022-08-20T11:59:31;98744.88;;;23.71;100.00
51237;BME280;37312;47.550;18.818;2022-08-20T12:01:57;98745.25;;;23.61;100.00
51237;BME280;37312;47.550;18.818;2022-08-20T12:04:25;98743.91;;;23.67;100.00
51237;BME280;37312;47.550;18.818;2022-08-20T12:06:51;98749.88;;;23.69;100.00
51237;BME280;37312;47.550;18.818;2022-08-20T12:09:17;98735.66;;;23.67;100.00
51237;BME280;37312;47.550;18.818;2022-08-20T12:11:43;98724.66;;;23.67;100.00
51237;BME280;37312;47.550;18.818;2022-08-20T12:14:10;98723.84;;;23.67;100.00
51237;BME280;37312;47.550;18.818;2022-08-20T12:16:36;98722.44;;;23.61;100.00
51237;BME280;37312;47.550;18.818;2022-08-20T12:19:03;98718.88;;;23.60;100.00
51237;BME280;37312;47.550;18.818;2022-08-20T12:21:29;98713.00;;;23.79;100.00
51237;BME280;37312;47.550;18.818;2022-08-20T12:23:55;98723.78;;;23.93;100.00
51237;BME280;37312;47.550;18.818;2022-08-20T12:26:21;98706.09;;;24.03;100.00
51237;BME280;37312;47.550;18.818;2022-08-20T12:28:47;98706.59;;;23.96;100.00
51237;BME280;37312;47.550;18.818;2022-08-20T12:31:13;98711.38;;;24.08;100.00
51237;BME280;37312;47.550;18.818;2022-08-20T12:33:39;98702.59;;;24.14;100.00
51237;BME280;37312;47.550;18.818;2022-08-20T12:36:05;98697.47;;;24.34;100.00
51237;BME280;37312;47.550;18.818;2022-08-20T12:38:31;98694.34;;;24.14;100.00
51237;BME280;37312;47.550;18.818;2022-08-20T12:40:57;98688.63;;;23.99;100.00
51237;BME280;37312;47.550;18.818;2022-08-20T12:43:23;98689.25;;;24.04;100.00
51237;BME280;37312;47.550;18.818;2022-08-20T12:45:48;98686.78;;;24.11;100.00
51237;BME280;37312;47.550;18.818;2022-08-20T12:48:14;98679.66;;;24.10;100.00
51237;BME280;37312;47.550;18.818;2022-08-20T12:50:42;98673.41;;;24.01;100.00